Terminal Aerodrome Forecast
Issued by NWS Louisville, KY

Home | Current Version | Previous Version | Text Only | Print | Product List | Glossary On
Versions: 1 2 3 4 5 6 7 8 9 10 11 12 13 14 15 16 17 18
000
FTUS43 KLMK 261700
TAFSDF
TAF
KSDF 261724Z 2618/2724 35012KT 5SM -SHRA BR BKN012
     FM270000 35008KT P6SM VCSH BKN018
     FM270400 34005KT P6SM SCT025 BKN250
     FM271500 33007KT P6SM SCT030 BKN040=

USA.gov is the U.S. government's official web portal to all federal, state and local government web resources and services.